Terminal Aerodrome Forecast
Issued by NWS Central Illinois

Home | Current Version | Previous Version | Text Only | Print | Product List | Glossary On
Versions: 1 2 3 4 5 6 7 8 9 10 11 12 13 14
727
FTUS43 KILX 112345
TAFPIA
TAF
KPIA 112345Z 1200/1224 VRB03KT P6SM OVC080
     FM120500 20004KT 6SM -SN OVC035
     FM120600 23004KT 3SM -SN BR OVC015
     FM121100 28007KT P6SM OVC015
     FM121500 30011G16KT P6SM BKN025
     FM121900 31014G23KT P6SM SCT025=

USA.gov is the U.S. government's official web portal to all federal, state and local government web resources and services.